sensor_id;sensor_type;location;lat;lon;timestamp;P1;durP1;ratioP1;P2;durP2;ratioP2
23720;SDS011;42950;52.134;5.578;2022-10-13T00:00:42;19.65;;;11.77;;
23720;SDS011;42950;52.134;5.578;2022-10-13T00:03:10;18.25;;;11.38;;
23720;SDS011;42950;52.134;5.578;2022-10-13T00:05:44;17.02;;;11.60;;
23720;SDS011;42950;52.134;5.578;2022-10-13T00:08:11;17.60;;;11.60;;
23720;SDS011;42950;52.134;5.578;2022-10-13T00:10:39;19.95;;;11.90;;
23720;SDS011;42950;52.134;5.578;2022-10-13T00:13:06;15.55;;;11.15;;
23720;SDS011;42950;52.134;5.578;2022-10-13T00:15:36;19.65;;;11.52;;
23720;SDS011;42950;52.134;5.578;2022-10-13T00:18:03;20.42;;;11.80;;
23720;SDS011;42950;52.134;5.578;2022-10-13T00:20:29;23.67;;;13.00;;
23720;SDS011;42950;52.134;5.578;2022-10-13T00:22:54;20.52;;;12.27;;
23720;SDS011;42950;52.134;5.578;2022-10-13T00:25:20;18.70;;;12.30;;
23720;SDS011;42950;52.134;5.578;2022-10-13T00:27:51;25.58;;;12.60;;
23720;SDS011;42950;52.134;5.578;2022-10-13T00:30:17;21.90;;;12.25;;
23720;SDS011;42950;52.134;5.578;2022-10-13T00:32:43;25.15;;;12.82;;
23720;SDS011;42950;52.134;5.578;2022-10-13T00:35:08;15.60;;;12.00;;
23720;SDS011;42950;52.134;5.578;2022-10-13T00:37:35;19.70;;;11.80;;
23720;SDS011;42950;52.134;5.578;2022-10-13T00:40:00;19.05;;;12.25;;
23720;SDS011;42950;52.134;5.578;2022-10-13T00:42:26;18.38;;;11.52;;
23720;SDS011;42950;52.134;5.578;2022-10-13T00:47:44;22.15;;;12.18;;
23720;SDS011;42950;52.134;5.578;2022-10-13T00:50:14;16.98;;;12.60;;
23720;SDS011;42950;52.134;5.578;2022-10-13T00:52:43;19.88;;;12.52;;
23720;SDS011;42950;52.134;5.578;2022-10-13T00:55:10;21.33;;;13.00;;
23720;SDS011;42950;52.134;5.578;2022-10-13T00:57:41;21.00;;;12.85;;
23720;SDS011;42950;52.134;5.578;2022-10-13T01:00:10;20.45;;;12.38;;
23720;SDS011;42950;52.134;5.578;2022-10-13T01:02:36;25.25;;;13.43;;
23720;SDS011;42950;52.134;5.578;2022-10-13T01:05:03;20.05;;;12.77;;
23720;SDS011;42950;52.134;5.578;2022-10-13T01:07:31;25.25;;;14.10;;
23720;SDS011;42950;52.134;5.578;2022-10-13T01:09:58;19.48;;;13.05;;
23720;SDS011;42950;52.134;5.578;2022-10-13T01:12:30;19.85;;;13.05;;
23720;SDS011;42950;52.134;5.578;2022-10-13T01:15:33;22.63;;;13.65;;
23720;SDS011;42950;52.134;5.578;2022-10-13T01:20:46;22.08;;;13.68;;
23720;SDS011;42950;52.134;5.578;2022-10-13T01:32:39;17.83;;;12.52;;
23720;SDS011;42950;52.134;5.578;2022-10-13T01:37:52;22.85;;;13.45;;
23720;SDS011;42950;52.134;5.578;2022-10-13T01:40:28;20.33;;;12.60;;
23720;SDS011;42950;52.134;5.578;2022-10-13T01:48:13;20.88;;;13.27;;
23720;SDS011;42950;52.134;5.578;2022-10-13T01:50:40;24.70;;;13.98;;
23720;SDS011;42950;52.134;5.578;2022-10-13T01:53:07;22.90;;;14.07;;
23720;SDS011;42950;52.134;5.578;2022-10-13T01:55:35;22.67;;;14.30;;
23720;SDS011;42950;52.134;5.578;2022-10-13T01:58:01;20.42;;;13.55;;
23720;SDS011;42950;52.134;5.578;2022-10-13T02:00:38;20.58;;;13.20;;
23720;SDS011;42950;52.134;5.578;2022-10-13T02:03:14;19.35;;;12.75;;
23720;SDS011;42950;52.134;5.578;2022-10-13T02:06:27;18.05;;;13.30;;
23720;SDS011;42950;52.134;5.578;2022-10-13T02:11:57;19.50;;;13.02;;
23720;SDS011;42950;52.134;5.578;2022-10-13T02:14:27;20.90;;;13.25;;
23720;SDS011;42950;52.134;5.578;2022-10-13T02:16:56;17.67;;;12.90;;
23720;SDS011;42950;52.134;5.578;2022-10-13T02:19:26;19.42;;;12.30;;
23720;SDS011;42950;52.134;5.578;2022-10-13T02:21:54;17.33;;;12.50;;
23720;SDS011;42950;52.134;5.578;2022-10-13T02:24:21;20.83;;;13.25;;
23720;SDS011;42950;52.134;5.578;2022-10-13T02:26:47;22.30;;;12.73;;
23720;SDS011;42950;52.134;5.578;2022-10-13T02:29:15;18.88;;;12.43;;
23720;SDS011;42950;52.134;5.578;2022-10-13T02:31:41;20.60;;;13.05;;
23720;SDS011;42950;52.134;5.578;2022-10-13T02:34:08;22.48;;;13.30;;
23720;SDS011;42950;52.134;5.578;2022-10-13T02:36:34;19.85;;;12.90;;
23720;SDS011;42950;52.134;5.578;2022-10-13T02:39:02;18.88;;;12.27;;
23720;SDS011;42950;52.134;5.578;2022-10-13T02:41:28;19.67;;;12.88;;
23720;SDS011;42950;52.134;5.578;2022-10-13T02:43:55;17.73;;;12.68;;
23720;SDS011;42950;52.134;5.578;2022-10-13T02:46:21;19.95;;;13.13;;
23720;SDS011;42950;52.134;5.578;2022-10-13T02:48:46;20.13;;;12.93;;
23720;SDS011;42950;52.134;5.578;2022-10-13T02:51:12;17.05;;;12.77;;
23720;SDS011;42950;52.134;5.578;2022-10-13T02:53:38;19.80;;;13.00;;
23720;SDS011;42950;52.134;5.578;2022-10-13T02:56:04;17.65;;;13.02;;
23720;SDS011;42950;52.134;5.578;2022-10-13T02:58:30;18.42;;;12.38;;
23720;SDS011;42950;52.134;5.578;2022-10-13T03:01:09;17.88;;;11.95;;
23720;SDS011;42950;52.134;5.578;2022-10-13T03:03:36;15.68;;;12.45;;
23720;SDS011;42950;52.134;5.578;2022-10-13T03:06:02;21.13;;;13.07;;
23720;SDS011;42950;52.134;5.578;2022-10-13T03:08:30;17.85;;;13.05;;
23720;SDS011;42950;52.134;5.578;2022-10-13T03:10:56;18.25;;;13.52;;
23720;SDS011;42950;52.134;5.578;2022-10-13T03:13:22;22.15;;;12.88;;
23720;SDS011;42950;52.134;5.578;2022-10-13T03:15:49;19.42;;;12.18;;
23720;SDS011;42950;52.134;5.578;2022-10-13T03:18:14;20.77;;;13.13;;
23720;SDS011;42950;52.134;5.578;2022-10-13T03:20:41;20.17;;;13.27;;
23720;SDS011;42950;52.134;5.578;2022-10-13T03:23:07;19.67;;;13.05;;
23720;SDS011;42950;52.134;5.578;2022-10-13T03:25:33;19.98;;;13.90;;
23720;SDS011;42950;52.134;5.578;2022-10-13T03:27:59;23.20;;;14.43;;
23720;SDS011;42950;52.134;5.578;2022-10-13T03:30:25;21.15;;;13.77;;
23720;SDS011;42950;52.134;5.578;2022-10-13T03:32:50;18.23;;;12.93;;
23720;SDS011;42950;52.134;5.578;2022-10-13T03:35:16;18.13;;;13.38;;
23720;SDS011;42950;52.134;5.578;2022-10-13T03:37:42;22.05;;;13.30;;
23720;SDS011;42950;52.134;5.578;2022-10-13T03:40:08;20.02;;;13.57;;
23720;SDS011;42950;52.134;5.578;2022-10-13T03:42:35;24.88;;;15.05;;
23720;SDS011;42950;52.134;5.578;2022-10-13T03:45:02;20.85;;;14.20;;
23720;SDS011;42950;52.134;5.578;2022-10-13T03:47:28;20.90;;;14.50;;
23720;SDS011;42950;52.134;5.578;2022-10-13T03:49:55;21.75;;;14.48;;
23720;SDS011;42950;52.134;5.578;2022-10-13T03:52:21;21.15;;;14.13;;
23720;SDS011;42950;52.134;5.578;2022-10-13T03:54:47;21.60;;;13.88;;
23720;SDS011;42950;52.134;5.578;2022-10-13T03:57:13;22.88;;;15.10;;
23720;SDS011;42950;52.134;5.578;2022-10-13T03:59:40;22.80;;;14.48;;
23720;SDS011;42950;52.134;5.578;2022-10-13T04:02:06;22.83;;;15.13;;
23720;SDS011;42950;52.134;5.578;2022-10-13T04:04:33;21.80;;;14.70;;
23720;SDS011;42950;52.134;5.578;2022-10-13T04:06:59;23.42;;;13.90;;
23720;SDS011;42950;52.134;5.578;2022-10-13T04:09:25;20.17;;;14.35;;
23720;SDS011;42950;52.134;5.578;2022-10-13T04:11:53;20.92;;;13.90;;
23720;SDS011;42950;52.134;5.578;2022-10-13T04:14:19;20.95;;;14.23;;
23720;SDS011;42950;52.134;5.578;2022-10-13T04:16:45;21.92;;;15.35;;
23720;SDS011;42950;52.134;5.578;2022-10-13T04:19:12;24.52;;;15.70;;
23720;SDS011;42950;52.134;5.578;2022-10-13T04:21:38;19.25;;;14.10;;
23720;SDS011;42950;52.134;5.578;2022-10-13T04:24:05;22.77;;;15.30;;
23720;SDS011;42950;52.134;5.578;2022-10-13T04:26:32;23.67;;;15.52;;
23720;SDS011;42950;52.134;5.578;2022-10-13T04:29:00;22.23;;;14.40;;
23720;SDS011;42950;52.134;5.578;2022-10-13T04:31:28;27.35;;;15.02;;
23720;SDS011;42950;52.134;5.578;2022-10-13T04:33:54;22.13;;;14.00;;
23720;SDS011;42950;52.134;5.578;2022-10-13T04:36:20;22.70;;;14.38;;
23720;SDS011;42950;52.134;5.578;2022-10-13T04:38:46;21.58;;;14.20;;
23720;SDS011;42950;52.134;5.578;2022-10-13T04:41:12;21.27;;;14.30;;
23720;SDS011;42950;52.134;5.578;2022-10-13T04:43:40;23.38;;;14.48;;
23720;SDS011;42950;52.134;5.578;2022-10-13T04:46:09;24.95;;;14.43;;
23720;SDS011;42950;52.134;5.578;2022-10-13T04:48:38;23.20;;;14.95;;
23720;SDS011;42950;52.134;5.578;2022-10-13T04:51:05;18.25;;;13.48;;
23720;SDS011;42950;52.134;5.578;2022-10-13T04:53:36;20.20;;;14.05;;
23720;SDS011;42950;52.134;5.578;2022-10-13T04:56:03;22.05;;;14.93;;
23720;SDS011;42950;52.134;5.578;2022-10-13T04:58:31;20.23;;;14.65;;
23720;SDS011;42950;52.134;5.578;2022-10-13T05:00:57;26.08;;;15.68;;
23720;SDS011;42950;52.134;5.578;2022-10-13T05:03:23;19.17;;;14.40;;
23720;SDS011;42950;52.134;5.578;2022-10-13T05:05:48;20.27;;;15.13;;
23720;SDS011;42950;52.134;5.578;2022-10-13T05:08:14;21.23;;;14.07;;
23720;SDS011;42950;52.134;5.578;2022-10-13T05:10:40;22.75;;;14.85;;
23720;SDS011;42950;52.134;5.578;2022-10-13T05:13:06;24.42;;;14.48;;
23720;SDS011;42950;52.134;5.578;2022-10-13T05:15:32;24.52;;;15.88;;
23720;SDS011;42950;52.134;5.578;2022-10-13T05:17:58;21.50;;;14.90;;
23720;SDS011;42950;52.134;5.578;2022-10-13T05:20:24;22.15;;;14.70;;
23720;SDS011;42950;52.134;5.578;2022-10-13T05:22:51;23.55;;;15.65;;
23720;SDS011;42950;52.134;5.578;2022-10-13T05:25:16;27.13;;;15.65;;
23720;SDS011;42950;52.134;5.578;2022-10-13T05:27:43;26.00;;;15.30;;
23720;SDS011;42950;52.134;5.578;2022-10-13T05:30:10;21.65;;;14.68;;
23720;SDS011;42950;52.134;5.578;2022-10-13T05:32:36;21.77;;;14.20;;
23720;SDS011;42950;52.134;5.578;2022-10-13T05:35:02;23.40;;;14.52;;
23720;SDS011;42950;52.134;5.578;2022-10-13T05:37:28;20.50;;;13.77;;
23720;SDS011;42950;52.134;5.578;2022-10-13T05:39:53;23.15;;;15.15;;
23720;SDS011;42950;52.134;5.578;2022-10-13T05:42:19;22.52;;;14.77;;
23720;SDS011;42950;52.134;5.578;2022-10-13T05:44:45;22.77;;;15.30;;
23720;SDS011;42950;52.134;5.578;2022-10-13T05:47:10;23.77;;;14.40;;
23720;SDS011;42950;52.134;5.578;2022-10-13T05:49:36;19.08;;;13.20;;
23720;SDS011;42950;52.134;5.578;2022-10-13T05:52:06;20.80;;;14.75;;
23720;SDS011;42950;52.134;5.578;2022-10-13T05:54:35;23.58;;;15.15;;
23720;SDS011;42950;52.134;5.578;2022-10-13T05:59:47;24.65;;;15.80;;
23720;SDS011;42950;52.134;5.578;2022-10-13T06:02:26;26.23;;;14.68;;
23720;SDS011;42950;52.134;5.578;2022-10-13T06:04:59;24.38;;;15.27;;
23720;SDS011;42950;52.134;5.578;2022-10-13T06:07:26;29.20;;;15.57;;
23720;SDS011;42950;52.134;5.578;2022-10-13T06:09:53;26.73;;;15.60;;
23720;SDS011;42950;52.134;5.578;2022-10-13T06:12:21;20.13;;;14.60;;
23720;SDS011;42950;52.134;5.578;2022-10-13T06:14:46;22.60;;;14.80;;
23720;SDS011;42950;52.134;5.578;2022-10-13T06:17:12;29.05;;;15.55;;
23720;SDS011;42950;52.134;5.578;2022-10-13T06:19:38;22.70;;;15.25;;
23720;SDS011;42950;52.134;5.578;2022-10-13T06:22:04;24.65;;;14.88;;
23720;SDS011;42950;52.134;5.578;2022-10-13T06:24:29;22.02;;;15.13;;
23720;SDS011;42950;52.134;5.578;2022-10-13T06:26:55;22.08;;;16.65;;
23720;SDS011;42950;52.134;5.578;2022-10-13T06:29:21;28.45;;;16.75;;
23720;SDS011;42950;52.134;5.578;2022-10-13T06:31:47;29.70;;;17.25;;
23720;SDS011;42950;52.134;5.578;2022-10-13T06:34:12;23.77;;;15.90;;
23720;SDS011;42950;52.134;5.578;2022-10-13T06:36:38;20.48;;;15.18;;
23720;SDS011;42950;52.134;5.578;2022-10-13T06:39:04;24.58;;;15.85;;
23720;SDS011;42950;52.134;5.578;2022-10-13T06:41:29;24.45;;;16.08;;
23720;SDS011;42950;52.134;5.578;2022-10-13T06:43:55;27.50;;;15.70;;
23720;SDS011;42950;52.134;5.578;2022-10-13T06:46:20;25.73;;;16.23;;
23720;SDS011;42950;52.134;5.578;2022-10-13T06:48:49;21.50;;;15.05;;
23720;SDS011;42950;52.134;5.578;2022-10-13T06:51:15;23.85;;;16.65;;
23720;SDS011;42950;52.134;5.578;2022-10-13T06:53:40;23.70;;;15.55;;
23720;SDS011;42950;52.134;5.578;2022-10-13T06:56:06;22.50;;;15.02;;
23720;SDS011;42950;52.134;5.578;2022-10-13T06:58:36;25.10;;;16.42;;
23720;SDS011;42950;52.134;5.578;2022-10-13T07:01:02;25.38;;;15.20;;
23720;SDS011;42950;52.134;5.578;2022-10-13T07:03:28;28.13;;;15.40;;
23720;SDS011;42950;52.134;5.578;2022-10-13T07:05:59;24.58;;;15.55;;
23720;SDS011;42950;52.134;5.578;2022-10-13T07:08:25;23.88;;;15.27;;
23720;SDS011;42950;52.134;5.578;2022-10-13T07:10:51;24.17;;;15.68;;
23720;SDS011;42950;52.134;5.578;2022-10-13T07:13:16;24.55;;;15.32;;
23720;SDS011;42950;52.134;5.578;2022-10-13T07:15:42;23.27;;;15.25;;
23720;SDS011;42950;52.134;5.578;2022-10-13T07:18:07;26.15;;;16.08;;
23720;SDS011;42950;52.134;5.578;2022-10-13T07:20:33;32.38;;;16.45;;
23720;SDS011;42950;52.134;5.578;2022-10-13T07:22:59;28.27;;;15.90;;
23720;SDS011;42950;52.134;5.578;2022-10-13T07:25:25;24.40;;;15.48;;
23720;SDS011;42950;52.134;5.578;2022-10-13T07:27:50;30.70;;;16.92;;
23720;SDS011;42950;52.134;5.578;2022-10-13T07:30:16;26.30;;;16.48;;
23720;SDS011;42950;52.134;5.578;2022-10-13T07:32:42;25.27;;;16.23;;
23720;SDS011;42950;52.134;5.578;2022-10-13T07:35:08;23.90;;;16.23;;
23720;SDS011;42950;52.134;5.578;2022-10-13T07:37:35;24.15;;;16.27;;
23720;SDS011;42950;52.134;5.578;2022-10-13T07:40:03;20.73;;;14.65;;
23720;SDS011;42950;52.134;5.578;2022-10-13T07:42:29;25.00;;;17.02;;
23720;SDS011;42950;52.134;5.578;2022-10-13T07:44:55;27.02;;;15.85;;
23720;SDS011;42950;52.134;5.578;2022-10-13T07:47:21;29.35;;;17.40;;
23720;SDS011;42950;52.134;5.578;2022-10-13T07:49:46;30.48;;;17.00;;
23720;SDS011;42950;52.134;5.578;2022-10-13T07:52:12;22.85;;;16.20;;
23720;SDS011;42950;52.134;5.578;2022-10-13T07:54:37;29.38;;;17.13;;
23720;SDS011;42950;52.134;5.578;2022-10-13T07:57:03;25.08;;;17.92;;
23720;SDS011;42950;52.134;5.578;2022-10-13T07:59:30;27.52;;;18.35;;
23720;SDS011;42950;52.134;5.578;2022-10-13T08:01:57;28.20;;;18.63;;
23720;SDS011;42950;52.134;5.578;2022-10-13T08:04:24;30.77;;;17.95;;
23720;SDS011;42950;52.134;5.578;2022-10-13T08:06:56;29.27;;;18.00;;
23720;SDS011;42950;52.134;5.578;2022-10-13T08:09:22;28.25;;;19.50;;
23720;SDS011;42950;52.134;5.578;2022-10-13T08:11:49;30.45;;;19.58;;
23720;SDS011;42950;52.134;5.578;2022-10-13T08:14:15;33.53;;;20.40;;
23720;SDS011;42950;52.134;5.578;2022-10-13T08:16:40;27.42;;;19.77;;
23720;SDS011;42950;52.134;5.578;2022-10-13T08:19:09;28.98;;;20.65;;
23720;SDS011;42950;52.134;5.578;2022-10-13T08:21:36;31.48;;;20.52;;
23720;SDS011;42950;52.134;5.578;2022-10-13T08:24:02;32.72;;;21.17;;
23720;SDS011;42950;52.134;5.578;2022-10-13T08:26:32;33.65;;;21.63;;
23720;SDS011;42950;52.134;5.578;2022-10-13T08:28:57;31.13;;;20.60;;
23720;SDS011;42950;52.134;5.578;2022-10-13T08:31:23;29.77;;;20.92;;
23720;SDS011;42950;52.134;5.578;2022-10-13T08:33:48;29.02;;;21.83;;
23720;SDS011;42950;52.134;5.578;2022-10-13T08:36:16;30.70;;;22.05;;
23720;SDS011;42950;52.134;5.578;2022-10-13T08:38:42;26.17;;;21.17;;
23720;SDS011;42950;52.134;5.578;2022-10-13T08:41:13;28.90;;;22.35;;
23720;SDS011;42950;52.134;5.578;2022-10-13T08:44:03;29.75;;;22.05;;
23720;SDS011;42950;52.134;5.578;2022-10-13T08:46:49;34.28;;;22.42;;
23720;SDS011;42950;52.134;5.578;2022-10-13T08:49:21;28.65;;;21.05;;
23720;SDS011;42950;52.134;5.578;2022-10-13T08:51:46;27.92;;;20.13;;
23720;SDS011;42950;52.134;5.578;2022-10-13T08:54:13;26.65;;;19.45;;
23720;SDS011;42950;52.134;5.578;2022-10-13T08:56:41;24.67;;;18.33;;
23720;SDS011;42950;52.134;5.578;2022-10-13T08:59:09;26.25;;;20.05;;
23720;SDS011;42950;52.134;5.578;2022-10-13T09:01:39;25.92;;;19.08;;
23720;SDS011;42950;52.134;5.578;2022-10-13T09:06:56;26.88;;;19.55;;
23720;SDS011;42950;52.134;5.578;2022-10-13T09:09:27;27.02;;;20.73;;
23720;SDS011;42950;52.134;5.578;2022-10-13T09:11:52;26.63;;;19.75;;
23720;SDS011;42950;52.134;5.578;2022-10-13T09:14:19;28.13;;;19.90;;
23720;SDS011;42950;52.134;5.578;2022-10-13T09:16:46;27.77;;;19.70;;
23720;SDS011;42950;52.134;5.578;2022-10-13T09:19:20;27.58;;;18.77;;
23720;SDS011;42950;52.134;5.578;2022-10-13T09:21:48;23.90;;;17.35;;
23720;SDS011;42950;52.134;5.578;2022-10-13T09:24:16;24.42;;;15.40;;
23720;SDS011;42950;52.134;5.578;2022-10-13T09:26:45;22.38;;;16.75;;
23720;SDS011;42950;52.134;5.578;2022-10-13T09:29:24;20.48;;;14.13;;
23720;SDS011;42950;52.134;5.578;2022-10-13T09:31:52;19.50;;;13.68;;
23720;SDS011;42950;52.134;5.578;2022-10-13T09:34:31;20.08;;;14.00;;
23720;SDS011;42950;52.134;5.578;2022-10-13T09:37:02;20.38;;;13.93;;
23720;SDS011;42950;52.134;5.578;2022-10-13T09:39:30;20.17;;;14.40;;
23720;SDS011;42950;52.134;5.578;2022-10-13T09:44:43;22.88;;;14.23;;
23720;SDS011;42950;52.134;5.578;2022-10-13T09:47:15;25.83;;;14.88;;
23720;SDS011;42950;52.134;5.578;2022-10-13T09:49:59;21.02;;;14.38;;
23720;SDS011;42950;52.134;5.578;2022-10-13T09:52:39;28.67;;;14.98;;
23720;SDS011;42950;52.134;5.578;2022-10-13T09:55:20;24.48;;;14.48;;
23720;SDS011;42950;52.134;5.578;2022-10-13T09:57:55;20.63;;;14.15;;
23720;SDS011;42950;52.134;5.578;2022-10-13T10:00:29;25.55;;;13.98;;
23720;SDS011;42950;52.134;5.578;2022-10-13T10:08:17;20.60;;;12.40;;
23720;SDS011;42950;52.134;5.578;2022-10-13T10:10:51;21.35;;;13.00;;
23720;SDS011;42950;52.134;5.578;2022-10-13T10:13:19;22.30;;;12.77;;
23720;SDS011;42950;52.134;5.578;2022-10-13T10:15:50;23.33;;;12.23;;
23720;SDS011;42950;52.134;5.578;2022-10-13T10:21:30;16.05;;;12.13;;
23720;SDS011;42950;52.134;5.578;2022-10-13T10:26:52;18.48;;;11.93;;
23720;SDS011;42950;52.134;5.578;2022-10-13T10:37:17;24.48;;;14.00;;
23720;SDS011;42950;52.134;5.578;2022-10-13T10:45:13;23.55;;;14.25;;
23720;SDS011;42950;52.134;5.578;2022-10-13T10:47:42;26.52;;;15.05;;
23720;SDS011;42950;52.134;5.578;2022-10-13T10:50:13;23.42;;;15.10;;
23720;SDS011;42950;52.134;5.578;2022-10-13T11:00:28;19.73;;;13.38;;
23720;SDS011;42950;52.134;5.578;2022-10-13T11:13:49;19.70;;;12.00;;
23720;SDS011;42950;52.134;5.578;2022-10-13T11:16:32;23.35;;;12.10;;
23720;SDS011;42950;52.134;5.578;2022-10-13T11:27:17;19.15;;;12.88;;
23720;SDS011;42950;52.134;5.578;2022-10-13T11:30:04;24.75;;;13.55;;
23720;SDS011;42950;52.134;5.578;2022-10-13T11:32:50;24.00;;;14.07;;
23720;SDS011;42950;52.134;5.578;2022-10-13T11:35:25;18.88;;;13.70;;
23720;SDS011;42950;52.134;5.578;2022-10-13T11:57:17;21.95;;;14.23;;
23720;SDS011;42950;52.134;5.578;2022-10-13T11:59:48;21.52;;;14.27;;
23720;SDS011;42950;52.134;5.578;2022-10-13T12:02:18;25.15;;;13.68;;
23720;SDS011;42950;52.134;5.578;2022-10-13T12:05:06;22.75;;;14.38;;
23720;SDS011;42950;52.134;5.578;2022-10-13T12:07:53;22.75;;;14.65;;
23720;SDS011;42950;52.134;5.578;2022-10-13T12:10:23;19.48;;;13.70;;
23720;SDS011;42950;52.134;5.578;2022-10-13T12:13:00;24.75;;;14.20;;
23720;SDS011;42950;52.134;5.578;2022-10-13T12:15:29;24.83;;;14.48;;
23720;SDS011;42950;52.134;5.578;2022-10-13T12:18:01;21.52;;;14.18;;
23720;SDS011;42950;52.134;5.578;2022-10-13T12:20:29;20.60;;;13.70;;
23720;SDS011;42950;52.134;5.578;2022-10-13T12:22:56;22.58;;;14.30;;
23720;SDS011;42950;52.134;5.578;2022-10-13T12:25:25;21.77;;;14.68;;
23720;SDS011;42950;52.134;5.578;2022-10-13T12:27:54;21.30;;;14.15;;
23720;SDS011;42950;52.134;5.578;2022-10-13T12:30:26;23.20;;;13.68;;
23720;SDS011;42950;52.134;5.578;2022-10-13T12:33:01;22.15;;;13.85;;
23720;SDS011;42950;52.134;5.578;2022-10-13T12:35:32;21.00;;;14.40;;
23720;SDS011;42950;52.134;5.578;2022-10-13T12:38:02;23.90;;;13.73;;
23720;SDS011;42950;52.134;5.578;2022-10-13T12:40:30;21.83;;;13.98;;
23720;SDS011;42950;52.134;5.578;2022-10-13T12:42:57;19.05;;;12.90;;
23720;SDS011;42950;52.134;5.578;2022-10-13T12:45:25;17.85;;;12.70;;
23720;SDS011;42950;52.134;5.578;2022-10-13T12:47:55;20.30;;;12.90;;
23720;SDS011;42950;52.134;5.578;2022-10-13T12:52:50;18.38;;;11.98;;
23720;SDS011;42950;52.134;5.578;2022-10-13T12:55:18;18.25;;;13.27;;
23720;SDS011;42950;52.134;5.578;2022-10-13T12:57:45;22.65;;;14.27;;
23720;SDS011;42950;52.134;5.578;2022-10-13T13:02:52;17.73;;;12.93;;
23720;SDS011;42950;52.134;5.578;2022-10-13T13:05:34;20.27;;;13.90;;
23720;SDS011;42950;52.134;5.578;2022-10-13T13:08:04;18.73;;;14.07;;
23720;SDS011;42950;52.134;5.578;2022-10-13T13:10:56;22.27;;;14.23;;
23720;SDS011;42950;52.134;5.578;2022-10-13T13:13:26;20.88;;;14.15;;
23720;SDS011;42950;52.134;5.578;2022-10-13T13:15:52;19.77;;;14.30;;
23720;SDS011;42950;52.134;5.578;2022-10-13T13:18:37;19.67;;;14.23;;
23720;SDS011;42950;52.134;5.578;2022-10-13T13:21:06;22.92;;;14.25;;
23720;SDS011;42950;52.134;5.578;2022-10-13T13:23:33;24.60;;;14.85;;
23720;SDS011;42950;52.134;5.578;2022-10-13T13:26:10;23.40;;;15.38;;
23720;SDS011;42950;52.134;5.578;2022-10-13T13:28:42;24.10;;;15.85;;
23720;SDS011;42950;52.134;5.578;2022-10-13T13:31:13;20.23;;;14.00;;
23720;SDS011;42950;52.134;5.578;2022-10-13T13:33:40;21.95;;;15.40;;
23720;SDS011;42950;52.134;5.578;2022-10-13T13:36:21;20.38;;;14.82;;
23720;SDS011;42950;52.134;5.578;2022-10-13T13:38:49;23.95;;;14.57;;
23720;SDS011;42950;52.134;5.578;2022-10-13T13:41:15;22.13;;;15.13;;
23720;SDS011;42950;52.134;5.578;2022-10-13T13:43:41;20.52;;;15.55;;
23720;SDS011;42950;52.134;5.578;2022-10-13T13:46:11;25.95;;;15.52;;
23720;SDS011;42950;52.134;5.578;2022-10-13T13:48:40;25.02;;;15.82;;
23720;SDS011;42950;52.134;5.578;2022-10-13T13:51:07;26.08;;;17.58;;
23720;SDS011;42950;52.134;5.578;2022-10-13T13:53:33;24.92;;;16.63;;
23720;SDS011;42950;52.134;5.578;2022-10-13T13:55:59;25.92;;;15.93;;
23720;SDS011;42950;52.134;5.578;2022-10-13T13:58:24;25.42;;;17.05;;
23720;SDS011;42950;52.134;5.578;2022-10-13T14:00:50;26.17;;;16.48;;
23720;SDS011;42950;52.134;5.578;2022-10-13T14:03:15;24.05;;;16.77;;
23720;SDS011;42950;52.134;5.578;2022-10-13T14:05:41;27.58;;;18.10;;
23720;SDS011;42950;52.134;5.578;2022-10-13T14:08:06;25.48;;;17.95;;
23720;SDS011;42950;52.134;5.578;2022-10-13T14:10:32;23.42;;;17.08;;
23720;SDS011;42950;52.134;5.578;2022-10-13T14:12:58;23.85;;;17.25;;
23720;SDS011;42950;52.134;5.578;2022-10-13T14:15:24;28.10;;;16.75;;
23720;SDS011;42950;52.134;5.578;2022-10-13T14:17:50;23.67;;;17.30;;
23720;SDS011;42950;52.134;5.578;2022-10-13T14:20:19;24.98;;;17.13;;
23720;SDS011;42950;52.134;5.578;2022-10-13T14:22:46;23.35;;;15.55;;
23720;SDS011;42950;52.134;5.578;2022-10-13T14:25:11;22.55;;;16.42;;
23720;SDS011;42950;52.134;5.578;2022-10-13T14:27:37;25.30;;;16.42;;
23720;SDS011;42950;52.134;5.578;2022-10-13T14:30:03;24.38;;;15.93;;
23720;SDS011;42950;52.134;5.578;2022-10-13T14:32:30;18.90;;;15.55;;
23720;SDS011;42950;52.134;5.578;2022-10-13T14:34:55;26.95;;;16.23;;
23720;SDS011;42950;52.134;5.578;2022-10-13T14:37:21;21.63;;;15.82;;
23720;SDS011;42950;52.134;5.578;2022-10-13T14:39:47;24.65;;;15.68;;
23720;SDS011;42950;52.134;5.578;2022-10-13T14:42:12;22.52;;;16.48;;
23720;SDS011;42950;52.134;5.578;2022-10-13T14:44:38;21.92;;;16.50;;
23720;SDS011;42950;52.134;5.578;2022-10-13T14:47:03;23.38;;;15.88;;
23720;SDS011;42950;52.134;5.578;2022-10-13T14:49:29;25.10;;;16.05;;
23720;SDS011;42950;52.134;5.578;2022-10-13T14:51:54;26.70;;;16.80;;
23720;SDS011;42950;52.134;5.578;2022-10-13T14:54:20;25.63;;;16.55;;
23720;SDS011;42950;52.134;5.578;2022-10-13T14:56:46;23.35;;;16.65;;
23720;SDS011;42950;52.134;5.578;2022-10-13T14:59:11;22.08;;;15.95;;
23720;SDS011;42950;52.134;5.578;2022-10-13T15:01:37;20.20;;;15.57;;
23720;SDS011;42950;52.134;5.578;2022-10-13T15:04:05;20.73;;;15.30;;
23720;SDS011;42950;52.134;5.578;2022-10-13T15:06:31;20.98;;;15.38;;
23720;SDS011;42950;52.134;5.578;2022-10-13T15:08:57;24.60;;;16.25;;
23720;SDS011;42950;52.134;5.578;2022-10-13T15:11:23;20.70;;;15.40;;
23720;SDS011;42950;52.134;5.578;2022-10-13T15:13:50;26.60;;;16.98;;
23720;SDS011;42950;52.134;5.578;2022-10-13T15:16:17;24.85;;;17.08;;
23720;SDS011;42950;52.134;5.578;2022-10-13T15:18:54;23.52;;;16.00;;
23720;SDS011;42950;52.134;5.578;2022-10-13T15:21:20;21.80;;;16.33;;
23720;SDS011;42950;52.134;5.578;2022-10-13T15:23:46;22.13;;;16.20;;
23720;SDS011;42950;52.134;5.578;2022-10-13T15:26:13;21.80;;;16.50;;
23720;SDS011;42950;52.134;5.578;2022-10-13T15:28:41;22.08;;;16.17;;
23720;SDS011;42950;52.134;5.578;2022-10-13T15:31:11;21.55;;;15.80;;
23720;SDS011;42950;52.134;5.578;2022-10-13T15:33:37;19.75;;;15.70;;
23720;SDS011;42950;52.134;5.578;2022-10-13T15:36:06;22.88;;;16.33;;
23720;SDS011;42950;52.134;5.578;2022-10-13T15:38:32;25.90;;;17.92;;
23720;SDS011;42950;52.134;5.578;2022-10-13T15:41:01;25.65;;;18.25;;
23720;SDS011;42950;52.134;5.578;2022-10-13T15:43:28;25.13;;;17.63;;
23720;SDS011;42950;52.134;5.578;2022-10-13T15:45:55;26.88;;;18.70;;
23720;SDS011;42950;52.134;5.578;2022-10-13T15:48:24;19.10;;;16.60;;
23720;SDS011;42950;52.134;5.578;2022-10-13T15:50:50;21.80;;;17.63;;
23720;SDS011;42950;52.134;5.578;2022-10-13T15:53:16;21.85;;;17.23;;
23720;SDS011;42950;52.134;5.578;2022-10-13T15:55:42;23.10;;;17.65;;
23720;SDS011;42950;52.134;5.578;2022-10-13T15:58:07;22.60;;;17.05;;
23720;SDS011;42950;52.134;5.578;2022-10-13T16:00:33;24.48;;;16.17;;
23720;SDS011;42950;52.134;5.578;2022-10-13T16:02:59;21.52;;;17.48;;
23720;SDS011;42950;52.134;5.578;2022-10-13T16:05:24;26.17;;;17.30;;
23720;SDS011;42950;52.134;5.578;2022-10-13T16:07:50;25.17;;;17.98;;
23720;SDS011;42950;52.134;5.578;2022-10-13T16:10:15;30.10;;;18.90;;
23720;SDS011;42950;52.134;5.578;2022-10-13T16:12:41;24.00;;;19.33;;
23720;SDS011;42950;52.134;5.578;2022-10-13T16:15:07;25.15;;;18.35;;
23720;SDS011;42950;52.134;5.578;2022-10-13T16:17:34;25.45;;;17.08;;